createdAt,value
2019-01-23T00:00:41.038Z,57.50
2019-01-23T00:03:10.631Z,54.83
2019-01-23T00:05:40.083Z,57.57
2019-01-23T00:08:09.577Z,56.93
2019-01-23T00:10:39.053Z,52.60
2019-01-23T00:13:08.646Z,53.40
2019-01-23T00:15:38.103Z,56.53
2019-01-23T00:18:07.680Z,54.97
2019-01-23T00:20:37.260Z,58.77
2019-01-23T00:23:06.879Z,57.03
2019-01-23T00:25:36.346Z,54.13
2019-01-23T00:28:05.941Z,61.13
2019-01-23T00:30:35.405Z,56.53
2019-01-23T00:33:04.952Z,60.20
2019-01-23T00:35:34.442Z,56.80
2019-01-23T00:38:04.027Z,56.80
2019-01-23T00:40:33.612Z,61.97
2019-01-23T00:43:03.088Z,60.47
2019-01-23T00:45:32.567Z,59.53
2019-01-23T00:48:02.091Z,60.13
2019-01-23T00:50:32.921Z,59.27
2019-01-23T00:53:02.446Z,56.87
2019-01-23T00:55:31.914Z,56.90
2019-01-23T00:58:01.399Z,56.90
2019-01-23T01:00:30.958Z,57.60
2019-01-23T01:03:00.464Z,61.40
2019-01-23T01:05:29.989Z,60.30
2019-01-23T01:07:59.456Z,53.60
2019-01-23T01:10:28.954Z,57.80
2019-01-23T01:12:58.478Z,57.50
2019-01-23T01:15:28.064Z,56.30
2019-01-23T01:17:57.589Z,58.97
2019-01-23T01:20:27.158Z,60.73
2019-01-23T01:22:57.771Z,63.07
2019-01-23T01:25:27.313Z,63.73
2019-01-23T01:27:56.811Z,57.43
2019-01-23T01:30:26.463Z,62.67
2019-01-23T01:32:55.976Z,58.10
2019-01-23T01:35:25.454Z,56.83
2019-01-23T01:37:54.903Z,54.57
2019-01-23T01:40:24.480Z,61.77
2019-01-23T01:42:53.986Z,57.00
2019-01-23T01:45:23.441Z,59.10
2019-01-23T01:47:52.925Z,54.47
2019-01-23T01:50:22.570Z,56.53
2019-01-23T01:52:52.056Z,60.53
2019-01-23T01:55:21.618Z,56.83
2019-01-23T01:57:54.402Z,52.43
2019-01-23T02:00:25.097Z,57.17
2019-01-23T02:02:54.587Z,51.53
2019-01-23T02:05:24.059Z,54.77
2019-01-23T02:07:53.538Z,53.53
2019-01-23T02:10:23.268Z,51.70
2019-01-23T02:12:52.896Z,53.20
2019-01-23T02:15:22.394Z,54.87
2019-01-23T02:17:51.873Z,50.03
2019-01-23T02:20:23.949Z,52.57
2019-01-23T02:22:53.565Z,51.77
2019-01-23T02:25:23.323Z,50.40
2019-01-23T02:27:52.961Z,54.63
2019-01-23T02:30:23.992Z,52.03
2019-01-23T02:32:53.646Z,52.70
2019-01-23T02:35:23.265Z,51.03
2019-01-23T02:37:52.798Z,56.20
2019-01-23T02:40:22.763Z,54.13
2019-01-23T02:42:52.386Z,56.73
2019-01-23T02:45:22.212Z,57.07
2019-01-23T02:47:51.678Z,54.37
2019-01-23T02:50:21.182Z,52.63
2019-01-23T02:52:50.710Z,49.83
2019-01-23T02:55:20.204Z,57.50
2019-01-23T02:57:49.663Z,49.33
2019-01-23T03:00:20.129Z,53.20
2019-01-23T03:02:50.022Z,52.53
2019-01-23T03:05:20.455Z,55.30
2019-01-23T03:07:49.924Z,54.37
2019-01-23T03:10:20.614Z,53.30
2019-01-23T03:12:51.848Z,56.27
2019-01-23T03:15:21.391Z,60.27
2019-01-23T03:17:50.865Z,57.80
2019-01-23T03:20:20.958Z,55.20
2019-01-23T03:22:50.521Z,56.77
2019-01-23T03:25:20.169Z,59.83
2019-01-23T03:27:49.669Z,58.67
2019-01-23T03:30:21.521Z,55.97
2019-01-23T03:32:51.102Z,61.80
2019-01-23T03:35:20.886Z,58.73
2019-01-23T03:37:50.631Z,56.33
2019-01-23T03:40:23.056Z,52.47
2019-01-23T03:42:52.661Z,54.07
2019-01-23T03:45:22.355Z,57.03
2019-01-23T03:47:51.865Z,57.77
2019-01-23T03:50:21.342Z,58.27
2019-01-23T03:52:51.025Z,58.83
2019-01-23T03:55:20.625Z,55.23
2019-01-23T03:57:50.451Z,54.63
2019-01-23T04:00:21.717Z,58.60
2019-01-23T04:02:53.159Z,60.60
2019-01-23T04:05:22.766Z,59.30
2019-01-23T04:07:52.363Z,57.57
2019-01-23T04:10:21.911Z,59.67
2019-01-23T04:12:51.405Z,56.23
2019-01-23T04:15:20.866Z,62.03
2019-01-23T04:17:50.355Z,60.23
2019-01-23T04:20:22.170Z,58.17
2019-01-23T04:22:51.669Z,59.67
2019-01-23T04:25:21.331Z,57.47
2019-01-23T04:27:50.816Z,56.37
2019-01-23T04:30:23.222Z,57.03
2019-01-23T04:32:52.802Z,58.63
2019-01-23T04:35:22.325Z,59.13
2019-01-23T04:37:52.187Z,59.97
2019-01-23T04:40:21.668Z,56.53
2019-01-23T04:42:51.152Z,61.00
2019-01-23T04:45:20.698Z,63.93
2019-01-23T04:47:50.190Z,56.13
2019-01-23T04:50:19.828Z,58.30
2019-01-23T04:52:50.945Z,59.47
2019-01-23T04:55:20.420Z,58.07
2019-01-23T04:57:49.931Z,55.90
2019-01-23T05:00:21.114Z,54.47
2019-01-23T05:02:50.773Z,56.07
2019-01-23T05:05:20.244Z,56.83
2019-01-23T05:07:49.750Z,59.10
2019-01-23T05:10:19.213Z,56.37
2019-01-23T05:12:48.750Z,59.90
2019-01-23T05:15:18.388Z,63.80
2019-01-23T05:17:47.879Z,62.83
2019-01-23T05:20:17.952Z,54.37
2019-01-23T05:22:47.427Z,54.00
2019-01-23T05:25:17.011Z,61.47
2019-01-23T05:27:46.575Z,63.30
2019-01-23T05:30:23.053Z,62.93
2019-01-23T05:32:52.630Z,60.00
2019-01-23T05:35:22.189Z,68.30
2019-01-23T05:37:51.644Z,68.97
2019-01-23T05:40:21.206Z,60.80
2019-01-23T05:42:50.714Z,64.93
2019-01-23T05:45:20.233Z,66.80
2019-01-23T05:47:49.666Z,69.17
2019-01-23T05:50:20.131Z,62.80
2019-01-23T05:52:49.772Z,63.97
2019-01-23T05:55:19.273Z,58.00
2019-01-23T05:57:48.745Z,59.00
2019-01-23T06:00:21.724Z,66.33
2019-01-23T06:02:51.266Z,62.83
2019-01-23T06:05:21.282Z,62.73
2019-01-23T06:07:50.764Z,65.00
2019-01-23T06:10:20.264Z,67.53
2019-01-23T06:12:49.743Z,77.43
2019-01-23T06:15:19.345Z,77.23
2019-01-23T06:17:48.804Z,77.63
2019-01-23T06:20:21.282Z,77.63
2019-01-23T06:22:50.783Z,76.33
2019-01-23T06:25:20.413Z,79.43
2019-01-23T06:27:50.069Z,74.33
2019-01-23T06:30:25.702Z,85.00
2019-01-23T06:32:55.180Z,81.87
2019-01-23T06:35:24.658Z,80.87
2019-01-23T06:37:54.176Z,82.10
2019-01-23T06:40:23.786Z,80.97
2019-01-23T06:42:53.240Z,80.63
2019-01-23T06:45:22.920Z,76.80
2019-01-23T06:47:52.425Z,78.30
2019-01-23T06:50:23.212Z,84.10
2019-01-23T06:52:52.884Z,80.30
2019-01-23T06:55:22.709Z,80.23
2019-01-23T06:57:52.161Z,73.93
2019-01-23T07:00:23.874Z,78.23
2019-01-23T07:02:54.461Z,79.40
2019-01-23T07:05:24.237Z,82.80
2019-01-23T07:07:53.819Z,82.27
2019-01-23T07:10:25.359Z,78.90
2019-01-23T07:12:54.923Z,75.17
2019-01-23T07:15:24.403Z,80.53
2019-01-23T07:17:53.905Z,87.67
2019-01-23T07:20:25.587Z,77.73
2019-01-23T07:22:55.058Z,86.67
2019-01-23T07:25:24.932Z,82.43
2019-01-23T07:27:54.466Z,81.97
2019-01-23T07:30:28.511Z,91.40
2019-01-23T07:32:58.081Z,84.30
2019-01-23T07:35:27.788Z,86.57
2019-01-23T07:37:57.462Z,85.33
2019-01-23T07:40:27.116Z,85.57
2019-01-23T07:42:56.648Z,83.67
2019-01-23T07:45:28.435Z,79.27
2019-01-23T07:47:58.061Z,85.40
2019-01-23T07:50:27.726Z,80.90
2019-01-23T07:52:57.503Z,91.30
2019-01-23T07:55:27.144Z,90.43
2019-01-23T07:57:56.993Z,88.83
2019-01-23T08:00:31.477Z,89.53
2019-01-23T08:02:59.362Z,84.90
2019-01-23T08:05:29.066Z,88.57
2019-01-23T08:07:58.700Z,90.37
2019-01-23T08:10:28.160Z,92.97
2019-01-23T08:12:57.642Z,85.87
2019-01-23T08:15:33.256Z,92.97
2019-01-23T08:18:02.819Z,82.37
2019-01-23T08:20:32.422Z,94.57
2019-01-23T08:23:02.129Z,81.13
2019-01-23T08:25:31.709Z,89.17
2019-01-23T08:28:01.319Z,91.50
2019-01-23T08:30:30.943Z,100.40
2019-01-23T08:33:00.466Z,94.13
2019-01-23T08:35:30.124Z,97.07
2019-01-23T08:37:59.616Z,86.87
2019-01-23T08:40:29.236Z,100.13
2019-01-23T08:42:58.793Z,93.40
2019-01-23T08:45:28.438Z,88.03
2019-01-23T08:47:57.958Z,89.97
2019-01-23T08:50:37.286Z,85.90
2019-01-23T08:53:07.151Z,94.57
2019-01-23T08:55:36.616Z,82.13
2019-01-23T08:58:06.534Z,85.83
2019-01-23T09:00:36.296Z,90.03
2019-01-23T09:03:06.402Z,92.17
2019-01-23T09:05:35.968Z,91.30
2019-01-23T09:08:06.018Z,91.33
2019-01-23T09:10:35.570Z,84.03
2019-01-23T09:13:05.175Z,85.30
2019-01-23T09:15:34.804Z,80.40
2019-01-23T09:18:04.333Z,89.87
2019-01-23T09:20:33.869Z,80.87
2019-01-23T09:23:03.395Z,82.63
2019-01-23T09:25:32.863Z,84.03
2019-01-23T09:28:02.457Z,80.60
2019-01-23T09:30:39.877Z,86.37
2019-01-23T09:33:19.904Z,77.43
2019-01-23T09:36:08.720Z,92.77
2019-01-23T09:38:45.747Z,86.47
2019-01-23T09:41:19.956Z,82.83
2019-01-23T09:44:31.157Z,85.33
2019-01-23T09:47:08.221Z,83.17
2019-01-23T09:50:03.059Z,83.50
2019-01-23T09:52:45.883Z,84.83
2019-01-23T09:55:15.548Z,84.47
2019-01-23T09:57:46.258Z,81.17
2019-01-23T10:00:23.330Z,85.27
2019-01-23T10:02:52.868Z,75.43
2019-01-23T10:05:22.352Z,78.80
2019-01-23T10:07:51.818Z,84.13
2019-01-23T10:10:22.751Z,76.33
2019-01-23T10:12:52.218Z,74.50
2019-01-23T10:15:46.573Z,74.50
2019-01-23T10:18:16.321Z,73.67
2019-01-23T10:20:45.923Z,77.77
2019-01-23T10:23:15.465Z,76.67
2019-01-23T10:25:44.951Z,74.97
2019-01-23T10:28:14.418Z,77.33
2019-01-23T10:30:43.907Z,75.97
2019-01-23T10:33:13.379Z,67.40
2019-01-23T10:35:42.898Z,73.73
2019-01-23T10:38:12.353Z,70.30
2019-01-23T10:40:41.840Z,74.57
2019-01-23T10:43:11.312Z,73.67
2019-01-23T10:45:40.799Z,79.57
2019-01-23T10:48:10.274Z,78.47
2019-01-23T10:50:39.820Z,73.83
2019-01-23T10:53:09.259Z,67.17
2019-01-23T10:55:38.808Z,76.23
2019-01-23T10:58:08.264Z,83.90
2019-01-23T11:00:38.054Z,71.37
2019-01-23T11:03:10.150Z,71.23
2019-01-23T11:05:38.734Z,68.20
2019-01-23T11:08:08.312Z,68.03
2019-01-23T11:10:37.803Z,73.50
2019-01-23T11:13:10.364Z,73.23
2019-01-23T11:15:39.893Z,104.40
2019-01-23T11:18:09.433Z,81.97
2019-01-23T11:20:39.112Z,71.40
2019-01-23T11:23:08.633Z,63.07
2019-01-23T11:25:38.221Z,70.23
2019-01-23T11:28:07.724Z,66.90
2019-01-23T11:30:37.266Z,74.60
2019-01-23T11:33:06.747Z,68.47
2019-01-23T11:35:36.310Z,79.87
2019-01-23T11:38:06.071Z,76.13
2019-01-23T11:40:35.713Z,68.23
2019-01-23T11:43:05.321Z,70.93
2019-01-23T11:45:34.855Z,69.27
2019-01-23T11:48:04.638Z,66.60
2019-01-23T11:50:34.082Z,68.40
2019-01-23T11:53:03.660Z,67.20
2019-01-23T11:55:33.124Z,67.67
2019-01-23T11:58:02.635Z,63.40
2019-01-23T12:00:33.785Z,66.17
2019-01-23T12:03:03.341Z,63.03
2019-01-23T12:05:32.783Z,63.67
2019-01-23T12:08:02.282Z,61.17
2019-01-23T12:10:31.751Z,58.90
2019-01-23T12:13:01.245Z,61.63
2019-01-23T12:15:30.719Z,63.17
2019-01-23T12:18:00.289Z,65.57
2019-01-23T12:20:29.753Z,67.63
2019-01-23T12:22:59.300Z,60.77
2019-01-23T12:25:28.810Z,65.10
2019-01-23T12:27:58.457Z,57.63
2019-01-23T12:30:32.030Z,60.43
2019-01-23T12:33:01.631Z,67.53
2019-01-23T12:35:31.137Z,75.27
2019-01-23T12:38:00.634Z,67.87
2019-01-23T12:40:30.153Z,64.97
2019-01-23T12:42:59.669Z,62.00
2019-01-23T12:45:30.002Z,70.20
2019-01-23T12:47:59.678Z,90.30
2019-01-23T12:50:31.858Z,64.83
2019-01-23T12:53:01.406Z,62.83
2019-01-23T12:55:30.850Z,58.43
2019-01-23T12:58:00.364Z,56.27
2019-01-23T13:00:31.483Z,59.83
2019-01-23T13:03:01.314Z,72.93
2019-01-23T13:05:31.021Z,60.03
2019-01-23T13:08:00.634Z,55.57
2019-01-23T13:10:30.096Z,53.20
2019-01-23T13:13:00.078Z,55.90
2019-01-23T13:15:29.689Z,58.07
2019-01-23T13:17:59.403Z,50.53
2019-01-23T13:20:29.114Z,55.13
2019-01-23T13:22:58.678Z,51.90
2019-01-23T13:25:29.893Z,55.87
2019-01-23T13:28:01.859Z,51.53
2019-01-23T13:30:31.454Z,49.20
2019-01-23T13:33:00.980Z,52.77
2019-01-23T13:35:34.816Z,50.30
2019-01-23T13:38:07.235Z,51.80
2019-01-23T13:40:38.122Z,49.17
2019-01-23T13:43:08.500Z,51.37
2019-01-23T13:45:38.126Z,48.00
2019-01-23T13:48:08.060Z,50.33
2019-01-23T13:50:37.585Z,47.27
2019-01-23T13:53:07.088Z,49.17
2019-01-23T13:55:37.919Z,47.23
2019-01-23T13:58:07.853Z,47.70
2019-01-23T14:00:42.149Z,51.40
2019-01-23T14:03:12.412Z,44.43
2019-01-23T14:05:42.660Z,51.77
2019-01-23T14:08:12.719Z,51.77
2019-01-23T14:10:42.301Z,49.47
2019-01-23T14:13:11.998Z,44.67
2019-01-23T14:15:42.100Z,48.23
2019-01-23T14:18:11.926Z,48.20
2019-01-23T14:20:41.790Z,47.03
2019-01-23T14:23:11.654Z,48.47
2019-01-23T14:25:42.001Z,46.40
2019-01-23T14:28:12.216Z,48.77
2019-01-23T14:30:44.390Z,45.67
2019-01-23T14:33:14.358Z,49.67
2019-01-23T14:35:44.369Z,48.33
2019-01-23T14:38:14.526Z,51.30
2019-01-23T14:40:45.127Z,42.73
2019-01-23T14:43:15.375Z,46.10
2019-01-23T14:45:45.409Z,46.00
2019-01-23T14:48:15.955Z,43.90
2019-01-23T14:50:46.375Z,48.37
2019-01-23T14:53:16.467Z,50.83
2019-01-23T14:55:46.565Z,46.93
2019-01-23T14:58:16.391Z,47.97
2019-01-23T15:00:46.856Z,47.90
2019-01-23T15:03:16.996Z,45.87
2019-01-23T15:05:47.702Z,49.40
2019-01-23T15:08:17.778Z,45.10
2019-01-23T15:10:48.236Z,43.97
2019-01-23T15:13:18.301Z,44.40
2019-01-23T15:15:48.282Z,48.27
2019-01-23T15:18:18.416Z,46.13
2019-01-23T15:20:48.432Z,45.37
2019-01-23T15:23:18.465Z,48.13
2019-01-23T15:25:48.975Z,42.63
2019-01-23T15:28:19.442Z,48.63
2019-01-23T15:30:49.680Z,57.57
2019-01-23T15:33:20.281Z,45.93
2019-01-23T15:35:52.153Z,45.23
2019-01-23T15:38:22.654Z,44.77
2019-01-23T15:40:53.089Z,44.07
2019-01-23T15:43:23.253Z,50.03
2019-01-23T15:45:54.134Z,119.43
2019-01-23T15:48:24.930Z,60.23
2019-01-23T15:50:55.940Z,47.80
2019-01-23T15:53:26.520Z,43.80
2019-01-23T15:55:57.248Z,43.57
2019-01-23T15:58:28.120Z,37.47
2019-01-23T16:00:58.711Z,41.63
2019-01-23T16:03:29.086Z,41.03
2019-01-23T16:05:59.866Z,51.97
2019-01-23T16:08:30.063Z,66.50
2019-01-23T16:11:00.444Z,48.23
2019-01-23T16:13:30.658Z,39.23
2019-01-23T16:16:01.052Z,43.43
2019-01-23T16:18:31.550Z,38.43
2019-01-23T16:21:01.918Z,37.83
2019-01-23T16:23:32.905Z,42.17
2019-01-23T16:26:03.580Z,43.60
2019-01-23T16:28:34.225Z,46.57
2019-01-23T16:31:05.215Z,45.83
2019-01-23T16:33:36.573Z,126.90
2019-01-23T16:36:07.878Z,94.40
2019-01-23T16:38:38.605Z,51.33
2019-01-23T16:41:09.477Z,46.50
2019-01-23T16:43:41.744Z,52.17
2019-01-23T16:46:12.702Z,48.40
2019-01-23T16:48:44.270Z,49.17
2019-01-23T16:51:15.353Z,52.53
2019-01-23T16:53:46.750Z,56.33
2019-01-23T16:56:18.378Z,57.07
2019-01-23T16:58:49.552Z,55.27
2019-01-23T17:01:20.675Z,58.63
2019-01-23T17:03:52.138Z,59.53
2019-01-23T17:06:23.484Z,59.60
2019-01-23T17:08:54.772Z,54.37
2019-01-23T17:11:25.670Z,59.00
2019-01-23T17:13:57.028Z,62.27
2019-01-23T17:16:27.994Z,59.57
2019-01-23T17:18:58.759Z,57.73
2019-01-23T17:21:30.055Z,59.80
2019-01-23T17:24:01.240Z,58.40
2019-01-23T17:26:32.103Z,59.97
2019-01-23T17:29:02.967Z,63.07
2019-01-23T17:31:34.490Z,61.23
2019-01-23T17:34:06.256Z,61.00
2019-01-23T17:36:37.984Z,67.00
2019-01-23T17:39:10.914Z,60.50
2019-01-23T17:41:42.717Z,64.00
2019-01-23T17:44:14.067Z,61.93
2019-01-23T17:46:45.979Z,53.75
2019-01-23T17:49:17.354Z,63.27
2019-01-23T17:51:48.599Z,67.97
2019-01-23T17:54:19.990Z,70.80
2019-01-23T17:56:51.145Z,70.50
2019-01-23T17:59:22.865Z,67.30
2019-01-23T18:01:55.560Z,65.67
2019-01-23T18:04:27.087Z,67.20
2019-01-23T18:06:58.089Z,72.63
2019-01-23T18:09:29.555Z,77.67
2019-01-23T18:12:01.096Z,65.03
2019-01-23T18:14:32.788Z,67.97
2019-01-23T18:17:04.399Z,66.87
2019-01-23T18:19:35.784Z,61.43
2019-01-23T18:22:07.490Z,63.50
2019-01-23T18:24:39.123Z,73.03
2019-01-23T18:27:10.998Z,67.03
2019-01-23T18:29:43.166Z,69.50
2019-01-23T18:32:14.790Z,61.83
2019-01-23T18:35:12.859Z,70.80
2019-01-23T18:37:56.118Z,63.03
2019-01-23T18:40:55.995Z,72.47
2019-01-23T18:43:42.753Z,76.23
2019-01-23T18:46:54.940Z,77.70
2019-01-23T18:49:35.608Z,64.90
2019-01-23T18:52:08.446Z,71.37
2019-01-23T18:54:40.631Z,68.17
2019-01-23T18:57:15.511Z,64.80
2019-01-23T18:59:48.346Z,63.67
2019-01-23T19:02:20.380Z,62.83
2019-01-23T19:04:52.226Z,69.83
2019-01-23T19:07:24.607Z,82.50
2019-01-23T19:09:57.055Z,102.93
2019-01-23T19:12:28.956Z,106.17
2019-01-23T19:15:00.893Z,110.67
2019-01-23T19:17:32.916Z,142.77
2019-01-23T19:20:06.339Z,81.47
2019-01-23T19:22:38.413Z,93.97
2019-01-23T19:25:12.581Z,81.50
2019-01-23T19:27:45.230Z,77.73
2019-01-23T19:30:20.238Z,69.20
2019-01-23T19:32:52.421Z,75.90
2019-01-23T19:35:24.673Z,67.23
2019-01-23T19:37:57.046Z,69.43
2019-01-23T19:40:29.179Z,67.07
2019-01-23T19:43:00.994Z,73.27
2019-01-23T19:45:33.809Z,62.37
2019-01-23T19:48:05.917Z,62.43
2019-01-23T19:50:38.425Z,58.80
2019-01-23T19:53:10.803Z,62.30
2019-01-23T19:55:43.281Z,62.90
2019-01-23T19:58:15.511Z,62.20
2019-01-23T20:00:44.686Z,60.40
2019-01-23T20:03:20.327Z,61.93
2019-01-23T20:05:50.561Z,61.77
2019-01-23T20:08:22.185Z,66.10
2019-01-23T20:10:54.085Z,68.13
2019-01-23T20:13:25.980Z,63.10
2019-01-23T20:15:58.048Z,61.67
2019-01-23T20:18:29.700Z,58.57
2019-01-23T20:21:01.787Z,58.17
2019-01-23T20:23:33.450Z,62.70
2019-01-23T20:26:05.414Z,58.33
2019-01-23T20:28:37.770Z,60.20
2019-01-23T20:31:09.381Z,62.93
2019-01-23T20:33:41.452Z,61.60
2019-01-23T20:36:13.166Z,68.67
2019-01-23T20:38:44.909Z,60.17
2019-01-23T20:41:16.481Z,59.23
2019-01-23T20:43:48.314Z,58.83
2019-01-23T20:46:20.144Z,66.53
2019-01-23T20:48:52.286Z,59.33
2019-01-23T20:51:24.003Z,61.10
2019-01-23T20:53:55.767Z,63.23
2019-01-23T20:56:27.487Z,58.80
2019-01-23T20:58:59.572Z,60.87
2019-01-23T21:01:31.261Z,60.40
2019-01-23T21:04:02.947Z,64.43
2019-01-23T21:06:34.561Z,66.13
2019-01-23T21:09:07.322Z,60.00
2019-01-23T21:11:38.751Z,61.80
2019-01-23T21:14:09.935Z,58.47
2019-01-23T21:16:41.406Z,54.13
2019-01-23T21:19:12.291Z,59.97
2019-01-23T21:21:43.417Z,62.63
2019-01-23T21:24:14.353Z,58.60
2019-01-23T21:26:44.946Z,59.70
2019-01-23T21:29:18.102Z,59.67
2019-01-23T21:31:48.912Z,61.93
2019-01-23T21:34:19.961Z,58.73
2019-01-23T21:36:51.677Z,61.67
2019-01-23T21:39:22.281Z,65.90
2019-01-23T21:41:53.151Z,62.37
2019-01-23T21:44:24.018Z,64.57
2019-01-23T21:46:54.307Z,62.23
2019-01-23T21:49:24.462Z,62.47
2019-01-23T21:51:54.847Z,64.73
2019-01-23T21:54:25.217Z,60.37
2019-01-23T21:56:55.654Z,60.87
2019-01-23T21:59:26.049Z,63.93
2019-01-23T22:01:56.229Z,58.47
2019-01-23T22:04:26.084Z,58.20
2019-01-23T22:06:56.338Z,62.33
2019-01-23T22:09:26.204Z,58.63
2019-01-23T22:11:56.237Z,60.33
2019-01-23T22:14:26.245Z,56.23
2019-01-23T22:16:56.296Z,59.80
2019-01-23T22:19:26.604Z,57.27
2019-01-23T22:21:56.450Z,55.53
2019-01-23T22:24:26.146Z,66.13
2019-01-23T22:26:55.937Z,55.80
2019-01-23T22:29:25.550Z,58.50
2019-01-23T22:31:55.545Z,56.07
2019-01-23T22:34:25.422Z,57.53
2019-01-23T22:36:54.904Z,61.37
2019-01-23T22:39:24.470Z,56.53
2019-01-23T22:41:54.052Z,56.13
2019-01-23T22:44:23.515Z,56.50
2019-01-23T22:46:53.078Z,62.10
2019-01-23T22:49:22.624Z,58.23
2019-01-23T22:51:52.131Z,59.63
2019-01-23T22:54:21.594Z,54.13
2019-01-23T22:56:51.074Z,56.67
2019-01-23T22:59:20.561Z,62.83
2019-01-23T23:01:50.029Z,59.17
2019-01-23T23:04:19.522Z,60.33
2019-01-23T23:06:48.992Z,57.90
2019-01-23T23:09:18.523Z,55.90
2019-01-23T23:11:48.041Z,60.30
2019-01-23T23:14:17.543Z,58.90
2019-01-23T23:16:46.982Z,53.33
2019-01-23T23:19:16.522Z,56.27
2019-01-23T23:21:45.987Z,60.57
2019-01-23T23:24:15.482Z,55.80
2019-01-23T23:26:44.978Z,61.30
2019-01-23T23:29:14.455Z,58.53
2019-01-23T23:31:43.990Z,59.50
2019-01-23T23:34:13.500Z,60.03
2019-01-23T23:36:43.061Z,58.30
2019-01-23T23:39:12.664Z,59.03
2019-01-23T23:41:42.144Z,58.13
2019-01-23T23:44:11.700Z,59.67
2019-01-23T23:46:41.223Z,56.07
2019-01-23T23:49:10.741Z,58.13
2019-01-23T23:51:40.192Z,60.90
2019-01-23T23:54:09.745Z,54.87
2019-01-23T23:56:39.210Z,57.60
2019-01-23T23:59:08.721Z,57.53
